createdAt,value
2022-12-07T00:00:23.082Z,95792.47
2022-12-07T00:03:13.871Z,95786.10
2022-12-07T00:08:51.294Z,95786.36
2022-12-07T00:11:39.972Z,95786.43
2022-12-07T00:17:18.721Z,95788.22
2022-12-07T00:26:00.952Z,95786.17
2022-12-07T00:28:49.968Z,95785.13
2022-12-07T00:34:35.049Z,95770.75
2022-12-07T00:40:19.493Z,95778.13
2022-12-07T00:45:49.393Z,95773.21
2022-12-07T00:51:27.948Z,95776.48
2022-12-07T00:57:02.952Z,95766.84
2022-12-07T01:02:37.905Z,95768.92
2022-12-07T01:05:26.059Z,95770.91
2022-12-07T01:08:14.976Z,95768.48
2022-12-07T01:11:04.794Z,95766.11
2022-12-07T01:13:55.085Z,95766.40
2022-12-07T01:19:28.276Z,95768.27
2022-12-07T01:22:17.272Z,95772.98
2022-12-07T01:27:55.512Z,95776.27
2022-12-07T01:33:33.661Z,95772.69
2022-12-07T01:36:23.600Z,95770.83
2022-12-07T01:39:12.925Z,95770.79
2022-12-07T01:42:02.341Z,95766.44
2022-12-07T01:45:37.322Z,95771.09
2022-12-07T01:51:29.329Z,95776.41
2022-12-07T01:57:07.055Z,95772.78
2022-12-07T02:02:45.678Z,95770.89
2022-12-07T02:08:20.756Z,95770.63
2022-12-07T02:11:11.246Z,95768.80
2022-12-07T02:14:00.415Z,95762.44
2022-12-07T02:26:26.032Z,95751.97
2022-12-07T02:32:06.834Z,95753.59
2022-12-07T02:37:45.262Z,95756.17
2022-12-07T02:40:37.318Z,95762.14
2022-12-07T02:46:14.662Z,95750.16
2022-12-07T02:49:02.870Z,95755.47
2022-12-07T02:51:51.383Z,95756.99
2022-12-07T02:57:41.296Z,95745.09
2022-12-07T03:03:12.963Z,95748.43
2022-12-07T03:08:57.656Z,95744.09
2022-12-07T03:11:48.969Z,95739.87
2022-12-07T03:17:30.013Z,95736.10
2022-12-07T03:23:11.148Z,95737.34
2022-12-07T03:28:45.306Z,95732.59
2022-12-07T03:34:26.181Z,95736.82
2022-12-07T03:40:08.430Z,95730.30
2022-12-07T03:42:59.702Z,95737.66
2022-12-07T03:48:39.366Z,95740.77
2022-12-07T03:54:18.454Z,95737.44
2022-12-07T03:59:55.895Z,95736.88
2022-12-07T04:05:25.164Z,95742.89
2022-12-07T04:11:03.967Z,95739.87
2022-12-07T04:14:10.202Z,95734.20
2022-12-07T04:19:44.509Z,95739.41
2022-12-07T04:25:17.013Z,95735.66
2022-12-07T04:28:05.687Z,95735.31
2022-12-07T04:33:44.722Z,95733.80
2022-12-07T04:39:26.348Z,95734.63
2022-12-07T04:44:57.938Z,95728.52
2022-12-07T04:47:46.185Z,95734.45
2022-12-07T04:50:35.064Z,95732.72
2022-12-07T04:56:05.641Z,95734.14
2022-12-07T05:04:30.229Z,95738.61
2022-12-07T05:07:20.697Z,95740.30
2022-12-07T05:10:11.772Z,95736.66
2022-12-07T05:13:00.051Z,95736.39
2022-12-07T05:18:47.667Z,95739.52
2022-12-07T05:24:27.151Z,95730.03
2022-12-07T05:27:22.203Z,95731.07
2022-12-07T05:30:12.296Z,95732.55
2022-12-07T05:35:48.609Z,95734.89
2022-12-07T05:41:43.703Z,95725.54
2022-12-07T05:47:28.331Z,95734.75
2022-12-07T05:52:56.141Z,95730.98
2022-12-07T05:58:45.046Z,95740.20
2022-12-07T06:04:16.213Z,95738.30
2022-12-07T06:09:54.429Z,95739.42
2022-12-07T06:12:44.043Z,95738.61
2022-12-07T06:18:20.724Z,95735.39
2022-12-07T06:23:55.737Z,95736.61
2022-12-07T06:26:44.548Z,95743.05
2022-12-07T06:32:13.440Z,95740.64
2022-12-07T06:38:04.347Z,95737.00
2022-12-07T06:43:41.203Z,95736.87
2022-12-07T06:49:17.779Z,95753.75
2022-12-07T06:52:06.533Z,95750.67
2022-12-07T06:54:55.078Z,95748.98
2022-12-07T07:00:26.830Z,95752.91
2022-12-07T07:03:15.324Z,95752.95
2022-12-07T07:08:55.710Z,95748.94
2022-12-07T07:14:37.437Z,95747.67
2022-12-07T07:20:16.328Z,95745.88
2022-12-07T07:25:52.677Z,95752.13
2022-12-07T07:28:42.132Z,95747.97
2022-12-07T07:31:30.592Z,95750.16
2022-12-07T07:37:04.917Z,95753.23
2022-12-07T07:42:39.143Z,95752.75
2022-12-07T07:48:16.414Z,95756.73
2022-12-07T07:53:54.910Z,95760.50
2022-12-07T07:56:43.244Z,95765.23
2022-12-07T08:02:18.596Z,95760.58
2022-12-07T08:05:08.427Z,95774.85
2022-12-07T08:16:17.100Z,95774.59
2022-12-07T08:21:50.143Z,95773.64
2022-12-07T08:27:28.265Z,95777.49
2022-12-07T08:33:05.445Z,95782.34
2022-12-07T08:38:40.246Z,95773.37
2022-12-07T08:44:17.241Z,95780.81
2022-12-07T08:49:45.771Z,95789.70
2022-12-07T08:55:20.518Z,95787.95
2022-12-07T09:00:59.095Z,95785.47
2022-12-07T09:06:33.353Z,95791.34
2022-12-07T09:12:08.979Z,95789.19
2022-12-07T09:17:46.555Z,95789.26
2022-12-07T09:20:34.760Z,95790.52
2022-12-07T09:26:10.796Z,95795.33
2022-12-07T09:31:46.394Z,95796.25
2022-12-07T09:37:21.179Z,95798.80
2022-12-07T09:42:58.754Z,95793.95
2022-12-07T09:48:38.351Z,95790.62
2022-12-07T09:54:17.607Z,95791.95
2022-12-07T09:59:55.791Z,95787.63
2022-12-07T10:05:29.168Z,95779.93
2022-12-07T10:11:08.115Z,95782.08
2022-12-07T10:16:42.318Z,95779.59
2022-12-07T10:19:31.779Z,95774.96
2022-12-07T10:25:10.825Z,95765.45
2022-12-07T10:33:37.714Z,95755.89
2022-12-07T10:39:14.290Z,95749.59
2022-12-07T10:44:44.906Z,95740.78
2022-12-07T10:50:38.146Z,95731.38
2022-12-07T10:53:42.788Z,95720.10
2022-12-07T10:57:08.975Z,95723.38
2022-12-07T11:00:10.414Z,95725.87
2022-12-07T11:03:13.205Z,95720.75
2022-12-07T11:09:08.482Z,95710.56
2022-12-07T11:17:25.818Z,95705.50
2022-12-07T11:23:13.046Z,95699.72
2022-12-07T11:31:43.047Z,95693.23
2022-12-07T11:34:35.745Z,95692.82
2022-12-07T11:40:15.468Z,95687.89
2022-12-07T11:45:57.783Z,95687.20
2022-12-07T11:51:33.772Z,95684.44
2022-12-07T11:57:08.759Z,95676.77
2022-12-07T12:00:01.846Z,95676.45
2022-12-07T12:02:53.311Z,95670.31
2022-12-07T12:11:13.394Z,95662.83
2022-12-07T12:20:26.910Z,95663.02
2022-12-07T12:23:17.792Z,95652.70
2022-12-07T12:26:08.155Z,95651.30
2022-12-07T12:31:45.571Z,95644.72
2022-12-07T12:34:37.644Z,95645.73
2022-12-07T12:37:47.138Z,95640.34
2022-12-07T12:40:51.076Z,95636.18
2022-12-07T12:46:54.660Z,95639.69
2022-12-07T12:53:07.073Z,95636.41
2022-12-07T12:59:30.758Z,95628.89
2022-12-07T13:08:06.500Z,95624.73
2022-12-07T13:11:35.347Z,95621.03
2022-12-07T13:18:05.978Z,95609.59
2022-12-07T13:24:25.849Z,95602.87
2022-12-07T13:35:09.146Z,95597.16
2022-12-07T13:38:12.374Z,95598.44
2022-12-07T13:44:42.451Z,95587.17
2022-12-07T14:02:45.969Z,95579.61
2022-12-07T14:05:44.869Z,95577.20
2022-12-07T14:09:26.525Z,95579.94
2022-12-07T14:43:30.354Z,95562.98
2022-12-07T14:46:25.249Z,95566.08
2022-12-07T14:57:45.456Z,95565.87
2022-12-07T15:06:31.228Z,95561.75
2022-12-07T15:23:55.150Z,95556.33
2022-12-07T15:33:14.673Z,95556.83
2022-12-07T15:36:03.270Z,95567.91
2022-12-07T15:41:31.689Z,95559.82
2022-12-07T15:47:08.744Z,95566.72
2022-12-07T15:52:45.981Z,95551.77
2022-12-07T15:58:14.846Z,95554.41
2022-12-07T16:03:44.495Z,95553.23
2022-12-07T16:06:33.375Z,95550.30
2022-12-07T16:09:22.554Z,95547.35
2022-12-07T16:14:52.084Z,95531.64
2022-12-07T16:20:34.241Z,95540.28
2022-12-07T16:26:09.622Z,95539.38
2022-12-07T16:31:44.957Z,95536.88
2022-12-07T16:34:33.174Z,95531.78
2022-12-07T16:37:21.762Z,95538.16
2022-12-07T16:40:16.462Z,95530.84
2022-12-07T16:45:53.443Z,95534.95
2022-12-07T16:51:22.521Z,95524.66
2022-12-07T16:56:58.499Z,95521.88
2022-12-07T17:02:28.939Z,95518.20
2022-12-07T17:05:21.927Z,95524.72
2022-12-07T17:11:02.422Z,95518.44
2022-12-07T17:14:08.859Z,95528.23
2022-12-07T17:19:46.902Z,95528.39
2022-12-07T17:25:22.876Z,95519.56
2022-12-07T17:30:52.067Z,95523.22
2022-12-07T17:33:40.675Z,95527.34
2022-12-07T17:36:30.107Z,95526.88
2022-12-07T17:42:26.576Z,95514.80
2022-12-07T17:45:15.879Z,95517.84
2022-12-07T17:51:10.348Z,95512.82
2022-12-07T17:56:47.133Z,95506.88
2022-12-07T17:59:37.530Z,95509.37
2022-12-07T18:02:35.185Z,95506.39
2022-12-07T18:05:23.651Z,95501.82
2022-12-07T18:08:12.019Z,95498.14
2022-12-07T18:11:01.784Z,95497.09
2022-12-07T18:13:50.420Z,95494.97
2022-12-07T18:19:22.355Z,95498.47
2022-12-07T18:25:01.744Z,95487.41
2022-12-07T18:31:13.129Z,95494.70
2022-12-07T18:36:15.365Z,95493.16
2022-12-07T18:39:07.474Z,95487.55
2022-12-07T18:44:36.846Z,95482.90
2022-12-07T18:47:26.532Z,95485.66
2022-12-07T18:50:16.025Z,95483.88
2022-12-07T18:55:55.182Z,95484.56
2022-12-07T19:01:32.122Z,95479.28
2022-12-07T19:04:21.796Z,95481.63
2022-12-07T19:09:53.802Z,95475.28
2022-12-07T19:15:31.313Z,95462.83
2022-12-07T19:18:19.425Z,95456.30
2022-12-07T19:24:04.279Z,95455.55
2022-12-07T19:29:41.386Z,95461.68
2022-12-07T19:35:17.978Z,95454.16
2022-12-07T19:38:06.786Z,95452.31
2022-12-07T19:40:55.657Z,95451.03
2022-12-07T19:46:35.990Z,95452.61
2022-12-07T19:52:15.036Z,95445.81
2022-12-07T19:57:50.198Z,95430.80
2022-12-07T20:00:40.913Z,95429.22
2022-12-07T20:06:19.434Z,95428.70
2022-12-07T20:12:07.383Z,95417.41
2022-12-07T20:14:55.628Z,95412.31
2022-12-07T20:17:46.093Z,95409.64
2022-12-07T20:23:23.715Z,95406.80
2022-12-07T20:28:55.067Z,95410.52
2022-12-07T20:31:44.560Z,95414.59
2022-12-07T20:37:27.628Z,95415.27
2022-12-07T20:43:10.519Z,95413.41
2022-12-07T20:48:58.797Z,95408.56
2022-12-07T20:54:29.558Z,95407.94
2022-12-07T20:57:18.092Z,95409.33
2022-12-07T21:03:11.062Z,95407.73
2022-12-07T21:08:52.204Z,95405.12
2022-12-07T21:11:41.374Z,95410.73
2022-12-07T21:14:29.709Z,95403.20
2022-12-07T21:17:18.161Z,95401.55
2022-12-07T21:26:14.927Z,95398.19
2022-12-07T21:29:03.560Z,95397.29
2022-12-07T21:34:37.062Z,95384.88
2022-12-07T21:40:32.616Z,95384.67
2022-12-07T21:43:21.384Z,95376.91
2022-12-07T21:49:04.740Z,95382.78
2022-12-07T21:54:36.901Z,95380.98
2022-12-07T21:57:25.082Z,95387.38
2022-12-07T22:00:16.169Z,95383.33
2022-12-07T22:05:52.330Z,95377.77
2022-12-07T22:11:27.095Z,95387.19
2022-12-07T22:17:06.727Z,95384.47
2022-12-07T22:22:58.795Z,95382.02
2022-12-07T22:25:48.165Z,95380.64
2022-12-07T22:31:27.191Z,95381.92
2022-12-07T22:37:04.163Z,95379.97
2022-12-07T22:39:53.934Z,95380.66
2022-12-07T22:42:43.458Z,95385.38
2022-12-07T22:45:32.086Z,95374.91
2022-12-07T22:48:20.811Z,95368.63
2022-12-07T22:51:11.475Z,95366.47
2022-12-07T22:54:02.729Z,95367.63
2022-12-07T22:56:50.960Z,95371.25
2022-12-07T23:02:18.513Z,95368.99
2022-12-07T23:05:07.687Z,95362.98
2022-12-07T23:07:59.245Z,95363.74
2022-12-07T23:13:40.407Z,95353.70
2022-12-07T23:19:15.530Z,95360.19
2022-12-07T23:22:04.360Z,95353.64
2022-12-07T23:27:41.608Z,95350.95
2022-12-07T23:30:33.194Z,95343.16
2022-12-07T23:33:24.132Z,95345.09
2022-12-07T23:36:15.710Z,95345.05
2022-12-07T23:41:57.388Z,95345.83
2022-12-07T23:47:34.510Z,95337.31
2022-12-07T23:53:04.079Z,95323.41
2022-12-07T23:58:36.423Z,95316.43
